createdAt,value
2018-12-17T00:01:57.778Z,9.97
2018-12-17T00:04:26.964Z,10.00
2018-12-17T00:06:56.057Z,10.47
2018-12-17T00:09:26.246Z,9.80
2018-12-17T00:11:55.459Z,10.50
2018-12-17T00:14:24.636Z,11.40
2018-12-17T00:16:53.858Z,12.27
2018-12-17T00:19:23.001Z,11.50
2018-12-17T00:21:52.187Z,10.57
2018-12-17T00:24:21.374Z,10.00
2018-12-17T00:26:50.479Z,10.80
2018-12-17T00:29:19.561Z,9.80
2018-12-17T00:31:48.662Z,9.90
2018-12-17T00:34:17.861Z,10.40
2018-12-17T00:36:47.004Z,10.20
2018-12-17T00:39:16.111Z,11.23
2018-12-17T00:41:45.298Z,9.47
2018-12-17T00:44:14.456Z,9.53
2018-12-17T00:46:43.606Z,9.73
2018-12-17T00:49:12.748Z,10.37
2018-12-17T00:51:41.997Z,10.77
2018-12-17T00:54:11.237Z,10.20
2018-12-17T00:56:40.510Z,11.13
2018-12-17T00:59:09.643Z,10.97
2018-12-17T01:01:38.801Z,11.80
2018-12-17T01:04:07.987Z,10.73
2018-12-17T01:06:37.181Z,12.30
2018-12-17T01:09:07.376Z,10.20
2018-12-17T01:11:36.521Z,10.17
2018-12-17T01:14:06.713Z,10.10
2018-12-17T01:16:36.002Z,10.43
2018-12-17T01:19:05.367Z,10.10
2018-12-17T01:21:34.763Z,9.87
2018-12-17T01:24:04.039Z,8.97
2018-12-17T01:26:33.165Z,9.17
2018-12-17T01:29:02.436Z,8.30
2018-12-17T01:31:31.612Z,9.87
2018-12-17T01:34:00.739Z,9.43
2018-12-17T01:36:29.955Z,8.30
2018-12-17T01:38:59.123Z,9.90
2018-12-17T01:41:28.344Z,8.53
2018-12-17T01:43:57.484Z,9.93
2018-12-17T01:46:26.670Z,9.83
2018-12-17T01:48:55.868Z,10.63
2018-12-17T01:51:25.070Z,9.57
2018-12-17T01:53:54.170Z,8.93
2018-12-17T01:56:23.366Z,10.57
2018-12-17T01:58:53.489Z,9.73
2018-12-17T02:01:22.751Z,8.80
2018-12-17T02:03:52.032Z,9.13
2018-12-17T02:06:21.158Z,9.20
2018-12-17T02:08:50.408Z,9.80
2018-12-17T02:11:19.567Z,9.43
2018-12-17T02:13:48.817Z,8.90
2018-12-17T02:16:17.909Z,9.90
2018-12-17T02:18:48.027Z,12.20
2018-12-17T02:21:17.282Z,10.00
2018-12-17T02:23:46.515Z,10.53
2018-12-17T02:26:15.623Z,10.60
2018-12-17T02:28:44.752Z,11.63
2018-12-17T02:31:14.029Z,12.10
2018-12-17T02:33:43.217Z,10.70
2018-12-17T02:36:12.338Z,10.47
2018-12-17T02:38:41.517Z,11.40
2018-12-17T02:41:10.866Z,12.50
2018-12-17T02:43:40.000Z,12.40
2018-12-17T02:46:09.253Z,12.20
2018-12-17T02:48:38.359Z,10.63
2018-12-17T02:51:07.595Z,11.47
2018-12-17T02:53:36.742Z,11.03
2018-12-17T02:56:05.997Z,9.70
2018-12-17T02:58:35.148Z,10.70
2018-12-17T03:01:04.388Z,12.37
2018-12-17T03:03:33.539Z,9.90
2018-12-17T03:06:02.807Z,11.93
2018-12-17T03:08:31.910Z,12.20
2018-12-17T03:11:01.075Z,11.90
2018-12-17T03:13:30.377Z,11.77
2018-12-17T03:16:00.462Z,11.60
2018-12-17T03:18:29.706Z,11.20
2018-12-17T03:20:58.892Z,12.00
2018-12-17T03:23:29.194Z,9.93
2018-12-17T03:25:58.405Z,11.60
2018-12-17T03:28:27.639Z,10.00
2018-12-17T03:30:56.781Z,10.43
2018-12-17T03:33:27.091Z,11.50
2018-12-17T03:35:56.246Z,12.47
2018-12-17T03:38:26.773Z,10.97
2018-12-17T03:40:56.056Z,11.40
2018-12-17T03:43:26.340Z,13.43
2018-12-17T03:45:55.557Z,10.90
2018-12-17T03:48:24.939Z,12.63
2018-12-17T03:50:54.016Z,11.30
2018-12-17T03:53:23.807Z,11.17
2018-12-17T03:55:52.959Z,13.77
2018-12-17T03:58:22.193Z,14.43
2018-12-17T04:00:51.443Z,13.83
2018-12-17T04:03:22.178Z,10.60
2018-12-17T04:05:51.562Z,13.20
2018-12-17T04:08:20.809Z,16.23
2018-12-17T04:10:49.899Z,16.77
2018-12-17T04:13:19.975Z,12.63
2018-12-17T04:15:49.172Z,12.80
2018-12-17T04:18:18.316Z,17.60
2018-12-17T04:20:47.408Z,10.27
2018-12-17T04:23:16.871Z,12.07
2018-12-17T04:25:46.715Z,13.00
2018-12-17T04:28:15.812Z,13.00
2018-12-17T04:30:44.951Z,14.53
2018-12-17T04:33:15.135Z,12.40
2018-12-17T04:35:44.393Z,10.87
2018-12-17T04:38:13.625Z,10.57
2018-12-17T04:40:42.903Z,9.93
2018-12-17T04:43:12.009Z,9.50
2018-12-17T04:45:41.273Z,11.77
2018-12-17T04:48:10.435Z,13.57
2018-12-17T04:50:39.579Z,14.57
2018-12-17T04:53:08.780Z,13.20
2018-12-17T04:55:38.060Z,10.67
2018-12-17T04:58:07.583Z,14.40
2018-12-17T05:00:36.792Z,14.87
2018-12-17T05:03:06.006Z,11.00
2018-12-17T05:05:35.147Z,11.67
2018-12-17T05:08:05.643Z,13.50
2018-12-17T05:10:34.970Z,10.13
2018-12-17T05:13:05.123Z,12.90
2018-12-17T05:15:34.385Z,11.07
2018-12-17T05:18:03.518Z,11.47
2018-12-17T05:20:32.995Z,10.87
2018-12-17T05:23:02.174Z,10.37
2018-12-17T05:25:31.311Z,13.83
2018-12-17T05:28:00.394Z,16.37
2018-12-17T05:30:29.679Z,12.40
2018-12-17T05:32:59.142Z,11.33
2018-12-17T05:35:28.407Z,11.40
2018-12-17T05:37:57.618Z,10.57
2018-12-17T05:40:27.286Z,10.57
2018-12-17T05:42:56.468Z,9.77
2018-12-17T05:45:26.658Z,9.77
2018-12-17T05:47:55.941Z,11.73
2018-12-17T05:50:25.772Z,10.40
2018-12-17T05:52:55.096Z,9.67
2018-12-17T05:55:24.423Z,10.07
2018-12-17T05:57:53.674Z,10.30
2018-12-17T06:00:23.606Z,11.23
2018-12-17T06:02:52.801Z,11.07
2018-12-17T06:05:23.088Z,11.53
2018-12-17T06:07:52.333Z,10.40
2018-12-17T06:10:21.639Z,11.43
2018-12-17T06:12:50.985Z,13.27
2018-12-17T06:15:20.406Z,13.20
2018-12-17T06:17:49.926Z,12.70
2018-12-17T06:20:19.486Z,12.90
2018-12-17T06:22:48.760Z,12.00
2018-12-17T06:25:18.256Z,13.27
2018-12-17T06:27:47.525Z,13.17
2018-12-17T06:30:16.727Z,13.80
2018-12-17T06:32:45.815Z,15.23
2018-12-17T06:35:15.046Z,15.30
2018-12-17T06:37:44.270Z,16.60
2018-12-17T06:40:15.252Z,14.67
2018-12-17T06:42:44.509Z,12.10
2018-12-17T06:45:13.759Z,14.67
2018-12-17T06:47:42.970Z,12.87
2018-12-17T06:50:12.206Z,12.70
2018-12-17T06:52:41.435Z,18.70
2018-12-17T06:55:10.698Z,16.90
2018-12-17T06:57:39.845Z,15.30
2018-12-17T07:00:09.335Z,14.77
2018-12-17T07:02:38.500Z,14.33
2018-12-17T07:05:08.725Z,14.27
2018-12-17T07:07:42.492Z,14.83
2018-12-17T07:10:15.410Z,14.57
2018-12-17T07:12:48.987Z,13.50
2018-12-17T07:15:19.014Z,14.70
2018-12-17T07:17:48.633Z,14.27
2018-12-17T07:20:18.730Z,18.63
2018-12-17T07:22:48.071Z,15.13
2018-12-17T07:25:18.200Z,17.93
2018-12-17T07:27:47.445Z,16.00
2018-12-17T07:30:16.947Z,16.00
2018-12-17T07:32:46.094Z,16.10
2018-12-17T07:35:15.236Z,14.47
2018-12-17T07:37:44.346Z,15.57
2018-12-17T07:40:13.459Z,14.60
2018-12-17T07:42:42.579Z,15.67
2018-12-17T07:45:11.750Z,14.97
2018-12-17T07:47:40.977Z,13.50
2018-12-17T07:50:10.692Z,14.57
2018-12-17T07:52:39.812Z,14.60
2018-12-17T07:55:09.119Z,13.50
2018-12-17T07:57:38.302Z,14.73
2018-12-17T08:00:11.020Z,16.83
2018-12-17T08:02:40.163Z,14.23
2018-12-17T08:05:09.386Z,14.20
2018-12-17T08:07:38.515Z,15.40
2018-12-17T08:10:07.815Z,15.73
2018-12-17T08:12:36.971Z,16.73
2018-12-17T08:15:06.772Z,15.23
2018-12-17T08:17:36.129Z,13.40
2018-12-17T08:20:05.827Z,16.27
2018-12-17T08:22:35.215Z,14.53
2018-12-17T08:25:04.602Z,17.93
2018-12-17T08:27:33.919Z,16.30
2018-12-17T08:30:04.059Z,15.60
2018-12-17T08:32:34.043Z,14.80
2018-12-17T08:35:03.491Z,14.40
2018-12-17T08:37:32.772Z,15.57
2018-12-17T08:40:02.516Z,13.80
2018-12-17T08:42:31.830Z,13.03
2018-12-17T08:45:00.982Z,15.37
2018-12-17T08:47:30.267Z,10.93
2018-12-17T08:49:59.466Z,12.23
2018-12-17T08:52:28.654Z,12.70
2018-12-17T08:54:57.976Z,13.70
2018-12-17T08:57:27.158Z,14.40
2018-12-17T08:59:56.368Z,17.83
2018-12-17T09:02:25.614Z,18.20
2018-12-17T09:04:54.850Z,17.17
2018-12-17T09:07:24.125Z,17.43
2018-12-17T09:09:53.277Z,17.67
2018-12-17T09:12:22.440Z,16.73
2018-12-17T09:14:51.558Z,17.00
2018-12-17T09:17:20.722Z,17.93
2018-12-17T09:19:49.907Z,16.73
2018-12-17T09:22:19.045Z,18.43
2018-12-17T09:24:49.007Z,19.77
2018-12-17T09:27:18.135Z,17.20
2018-12-17T09:29:47.346Z,16.17
2018-12-17T09:32:16.499Z,17.17
2018-12-17T09:34:45.630Z,16.17
2018-12-17T09:37:14.854Z,14.93
2018-12-17T09:39:44.140Z,10.03
2018-12-17T09:42:13.256Z,10.93
2018-12-17T09:44:42.554Z,10.77
2018-12-17T09:47:11.692Z,11.60
2018-12-17T09:49:40.899Z,10.40
2018-12-17T09:52:09.999Z,9.20
2018-12-17T09:54:39.192Z,11.43
2018-12-17T09:57:08.328Z,12.10
2018-12-17T09:59:37.509Z,10.87
2018-12-17T10:02:06.682Z,12.37
2018-12-17T10:04:35.907Z,11.43
2018-12-17T10:07:05.283Z,11.70
2018-12-17T10:09:34.473Z,12.30
2018-12-17T10:12:03.632Z,11.67
2018-12-17T10:14:32.950Z,11.47
2018-12-17T10:17:02.222Z,12.47
2018-12-17T10:19:31.479Z,11.80
2018-12-17T10:22:00.698Z,13.53
2018-12-17T10:24:29.811Z,11.53
2018-12-17T10:26:59.008Z,13.07
2018-12-17T10:29:28.325Z,13.00
2018-12-17T10:31:58.581Z,12.67
2018-12-17T10:34:28.697Z,12.80
2018-12-17T10:36:57.978Z,12.30
2018-12-17T10:39:27.139Z,12.90
2018-12-17T10:41:56.371Z,12.13
2018-12-17T10:44:28.010Z,13.20
2018-12-17T10:46:57.688Z,12.10
2018-12-17T10:49:27.004Z,12.40
2018-12-17T10:51:56.255Z,12.53
2018-12-17T10:54:25.373Z,14.13
2018-12-17T10:56:54.635Z,12.13
2018-12-17T10:59:23.937Z,11.10
2018-12-17T11:02:07.286Z,11.17
2018-12-17T11:04:41.582Z,11.00
2018-12-17T11:07:10.848Z,9.30
2018-12-17T11:09:40.220Z,9.77
2018-12-17T11:12:09.470Z,10.20
2018-12-17T11:14:38.640Z,10.23
2018-12-17T11:17:08.240Z,10.40
2018-12-17T11:19:37.702Z,9.50
2018-12-17T11:22:06.973Z,9.73
2018-12-17T11:24:36.903Z,10.53
2018-12-17T11:27:06.158Z,10.53
2018-12-17T11:29:35.504Z,10.20
2018-12-17T11:32:11.449Z,11.73
2018-12-17T11:34:36.271Z,11.10
2018-12-17T11:37:05.468Z,9.93
2018-12-17T11:39:34.623Z,9.67
2018-12-17T11:42:03.763Z,9.43
2018-12-17T11:44:32.991Z,10.27
2018-12-17T11:47:02.148Z,8.90
2018-12-17T11:49:31.340Z,9.87
2018-12-17T11:52:01.285Z,9.30
2018-12-17T11:54:30.599Z,9.03
2018-12-17T11:57:17.629Z,8.77
2018-12-17T11:59:46.788Z,8.03
2018-12-17T12:02:16.009Z,8.33
2018-12-17T12:04:45.315Z,9.03
2018-12-17T12:07:14.571Z,9.07
2018-12-17T12:09:43.699Z,9.63
2018-12-17T12:12:12.957Z,8.87
2018-12-17T12:14:42.112Z,9.30
2018-12-17T12:17:12.195Z,10.70
2018-12-17T12:19:41.424Z,8.60
2018-12-17T12:22:10.551Z,8.97
2018-12-17T12:24:39.676Z,8.93
2018-12-17T12:27:08.981Z,7.83
2018-12-17T12:29:38.192Z,7.00
2018-12-17T12:32:07.255Z,8.40
2018-12-17T12:34:36.546Z,7.77
2018-12-17T12:37:05.649Z,8.93
2018-12-17T12:39:34.933Z,7.60
2018-12-17T12:42:04.006Z,8.20
2018-12-17T12:44:33.157Z,8.57
2018-12-17T12:47:02.347Z,7.90
2018-12-17T12:49:31.479Z,7.63
2018-12-17T12:52:00.597Z,8.17
2018-12-17T12:54:29.749Z,7.37
2018-12-17T12:56:58.933Z,7.50
2018-12-17T12:59:28.026Z,6.60
2018-12-17T13:01:57.215Z,7.67
2018-12-17T13:04:26.375Z,7.67
2018-12-17T13:06:55.622Z,6.73
2018-12-17T13:09:24.715Z,7.27
2018-12-17T13:11:53.908Z,6.47
2018-12-17T13:14:23.036Z,7.77
2018-12-17T13:16:54.303Z,7.10
2018-12-17T13:19:23.478Z,7.07
2018-12-17T13:21:52.617Z,7.20
2018-12-17T13:24:21.716Z,6.13
2018-12-17T13:26:51.958Z,6.73
2018-12-17T13:29:21.135Z,6.27
2018-12-17T13:31:50.359Z,6.47
2018-12-17T13:34:19.469Z,5.80
2018-12-17T13:36:48.609Z,6.30
2018-12-17T13:39:17.806Z,6.00
2018-12-17T13:41:46.976Z,5.37
2018-12-17T13:44:16.106Z,5.73
2018-12-17T13:46:45.208Z,5.97
2018-12-17T13:49:14.639Z,6.60
2018-12-17T13:51:48.935Z,5.50
2018-12-17T13:54:18.240Z,5.80
2018-12-17T13:56:47.367Z,5.30
2018-12-17T13:59:16.484Z,6.13
2018-12-17T14:01:51.420Z,4.97
2018-12-17T14:04:16.817Z,6.37
2018-12-17T14:06:45.951Z,6.27
2018-12-17T14:09:16.668Z,6.17
2018-12-17T14:11:47.111Z,6.00
2018-12-17T14:14:16.665Z,5.20
2018-12-17T14:16:50.899Z,5.80
2018-12-17T14:19:26.056Z,5.40
2018-12-17T14:21:57.243Z,6.23
2018-12-17T14:24:26.403Z,5.60
2018-12-17T14:26:55.541Z,5.87
2018-12-17T14:29:24.747Z,6.07
2018-12-17T14:31:54.074Z,6.00
2018-12-17T14:34:23.225Z,5.53
2018-12-17T14:36:52.355Z,5.47
2018-12-17T14:39:21.720Z,6.30
2018-12-17T14:41:50.812Z,5.70
2018-12-17T14:44:25.861Z,5.83
2018-12-17T14:46:58.980Z,6.43
2018-12-17T14:49:28.222Z,6.00
2018-12-17T14:51:57.293Z,6.27
2018-12-17T14:54:26.575Z,5.73
2018-12-17T14:56:55.713Z,6.07
2018-12-17T14:59:24.920Z,5.70
2018-12-17T15:01:55.014Z,5.60
2018-12-17T15:04:24.383Z,7.13
2018-12-17T15:06:54.302Z,6.00
2018-12-17T15:09:23.895Z,6.73
2018-12-17T15:11:53.388Z,6.20
2018-12-17T15:14:22.788Z,6.00
2018-12-17T15:16:52.148Z,5.20
2018-12-17T15:19:21.838Z,7.00
2018-12-17T15:21:51.158Z,6.87
2018-12-17T15:24:20.945Z,6.20
2018-12-17T15:26:50.218Z,6.07
2018-12-17T15:29:19.699Z,6.90
2018-12-17T15:31:49.223Z,6.57
2018-12-17T15:34:18.584Z,6.97
2018-12-17T15:36:48.460Z,6.37
2018-12-17T15:39:18.957Z,6.20
2018-12-17T15:41:49.035Z,6.57
2018-12-17T15:44:18.344Z,7.10
2018-12-17T15:46:47.788Z,6.17
2018-12-17T15:49:17.179Z,6.00
2018-12-17T15:51:46.640Z,6.67
2018-12-17T15:54:16.034Z,6.77
2018-12-17T15:56:45.395Z,6.43
2018-12-17T15:59:14.984Z,6.50
2018-12-17T16:01:50.055Z,5.97
2018-12-17T16:04:15.585Z,6.43
2018-12-17T16:06:44.979Z,6.13
2018-12-17T16:09:14.274Z,5.80
2018-12-17T16:11:43.675Z,5.13
2018-12-17T16:14:12.982Z,6.33
2018-12-17T16:16:42.312Z,6.77
2018-12-17T16:19:11.667Z,6.30
2018-12-17T16:21:41.107Z,7.73
2018-12-17T16:24:11.571Z,7.47
2018-12-17T16:26:41.046Z,6.13
2018-12-17T16:29:10.350Z,6.50
2018-12-17T16:31:39.711Z,6.93
2018-12-17T16:34:09.012Z,7.17
2018-12-17T16:36:38.552Z,7.60
2018-12-17T16:39:08.380Z,6.77
2018-12-17T16:41:37.727Z,6.63
2018-12-17T16:44:07.326Z,6.73
2018-12-17T16:46:37.079Z,6.87
2018-12-17T16:49:06.541Z,6.77
2018-12-17T16:51:36.880Z,6.80
2018-12-17T16:54:06.323Z,6.20
2018-12-17T16:56:35.875Z,6.73
2018-12-17T16:59:05.349Z,6.63
2018-12-17T17:01:35.137Z,5.40
2018-12-17T17:04:04.655Z,6.53
2018-12-17T17:06:34.580Z,6.83
2018-12-17T17:09:04.518Z,5.73
2018-12-17T17:11:34.008Z,5.70
2018-12-17T17:14:03.429Z,6.13
2018-12-17T17:16:32.628Z,5.67
2018-12-17T17:19:02.988Z,6.07
2018-12-17T17:21:32.235Z,6.63
2018-12-17T17:24:01.435Z,7.27
2018-12-17T17:26:30.586Z,5.50
2018-12-17T17:28:59.838Z,6.33
2018-12-17T17:31:30.011Z,6.40
2018-12-17T17:33:59.038Z,5.10
2018-12-17T17:36:28.698Z,6.40
2018-12-17T17:38:58.895Z,6.93
2018-12-17T17:41:30.643Z,6.03
2018-12-17T17:44:00.551Z,6.13
2018-12-17T17:46:30.028Z,5.70
2018-12-17T17:48:59.246Z,6.50
2018-12-17T17:51:28.455Z,6.33
2018-12-17T17:53:57.601Z,6.53
2018-12-17T17:56:26.759Z,6.00
2018-12-17T17:58:55.997Z,6.40
2018-12-17T18:01:25.062Z,6.33
2018-12-17T18:03:54.256Z,6.27
2018-12-17T18:06:23.514Z,6.27
2018-12-17T18:08:53.252Z,6.83
2018-12-17T18:11:22.678Z,5.80
2018-12-17T18:13:52.341Z,7.10
2018-12-17T18:16:22.625Z,8.70
2018-12-17T18:18:52.690Z,6.93
2018-12-17T18:21:22.892Z,6.90
2018-12-17T18:23:52.575Z,7.83
2018-12-17T18:26:21.784Z,6.80
2018-12-17T18:28:51.488Z,7.90
2018-12-17T18:31:20.584Z,9.17
2018-12-17T18:33:50.055Z,9.83
2018-12-17T18:36:19.749Z,9.00
2018-12-17T18:38:49.038Z,7.87
2018-12-17T18:41:18.580Z,8.47
2018-12-17T18:43:47.956Z,8.97
2018-12-17T18:46:17.449Z,10.37
2018-12-17T18:48:46.927Z,10.10
2018-12-17T18:51:16.534Z,10.00
2018-12-17T18:53:46.875Z,10.23
2018-12-17T18:56:16.443Z,10.67
2018-12-17T18:58:46.100Z,10.20
2018-12-17T19:01:15.476Z,10.57
2018-12-17T19:03:48.636Z,11.93
2018-12-17T19:06:20.047Z,11.87
2018-12-17T19:08:49.490Z,11.37
2018-12-17T19:11:18.968Z,11.97
2018-12-17T19:13:48.192Z,12.03
2018-12-17T19:16:17.798Z,11.90
2018-12-17T19:18:47.397Z,12.73
2018-12-17T19:21:16.959Z,12.80
2018-12-17T19:23:46.454Z,12.30
2018-12-17T19:26:15.925Z,12.40
2018-12-17T19:28:45.589Z,13.33
2018-12-17T19:31:15.129Z,13.40
2018-12-17T19:33:44.463Z,14.50
2018-12-17T19:36:14.063Z,14.33
2018-12-17T19:38:43.630Z,13.67
2018-12-17T19:41:13.390Z,12.63
2018-12-17T19:43:42.681Z,14.43
2018-12-17T19:46:12.265Z,12.67
2018-12-17T19:48:42.833Z,12.90
2018-12-17T19:51:12.123Z,14.63
2018-12-17T19:53:41.625Z,14.10
2018-12-17T19:56:11.242Z,15.53
2018-12-17T19:58:40.700Z,13.63
2018-12-17T20:01:10.136Z,14.03
2018-12-17T20:03:39.695Z,13.30
2018-12-17T20:06:09.102Z,15.20
2018-12-17T20:08:38.609Z,14.57
2018-12-17T20:11:08.014Z,15.60
2018-12-17T20:13:37.354Z,15.77
2018-12-17T20:16:07.087Z,14.33
2018-12-17T20:18:37.322Z,14.33
2018-12-17T20:21:06.888Z,13.80
2018-12-17T20:23:36.512Z,15.70
2018-12-17T20:26:05.992Z,15.27
2018-12-17T20:28:35.477Z,15.20
2018-12-17T20:31:04.898Z,16.13
2018-12-17T20:33:34.505Z,15.00
2018-12-17T20:36:04.015Z,15.23
2018-12-17T20:38:33.379Z,16.10
2018-12-17T20:41:02.995Z,15.70
2018-12-17T20:43:32.455Z,15.57
2018-12-17T20:46:02.068Z,15.83
2018-12-17T20:48:31.586Z,16.27
2018-12-17T20:51:01.076Z,15.23
2018-12-17T20:53:30.757Z,17.03
2018-12-17T20:56:00.221Z,16.50
2018-12-17T20:58:29.903Z,17.10
2018-12-17T21:00:59.432Z,16.67
2018-12-17T21:03:28.631Z,16.40
2018-12-17T21:05:58.034Z,15.80
2018-12-17T21:08:27.579Z,16.40
2018-12-17T21:10:56.969Z,17.93
2018-12-17T21:13:26.551Z,16.37
2018-12-17T21:15:55.820Z,16.77
2018-12-17T21:18:26.306Z,16.80
2018-12-17T21:20:55.466Z,16.43
2018-12-17T21:23:24.831Z,15.63
2018-12-17T21:25:53.936Z,16.33
2018-12-17T21:28:24.167Z,16.10
2018-12-17T21:30:53.898Z,15.60
2018-12-17T21:33:24.867Z,14.47
2018-12-17T21:35:54.739Z,16.03
2018-12-17T21:38:26.391Z,14.87
2018-12-17T21:40:55.619Z,14.00
2018-12-17T21:43:24.969Z,13.20
2018-12-17T21:45:55.468Z,14.80
2018-12-17T21:48:25.202Z,15.00
2018-12-17T21:50:54.833Z,13.37
2018-12-17T21:53:26.502Z,12.70
2018-12-17T21:55:56.074Z,13.40
2018-12-17T21:58:26.162Z,12.80
2018-12-17T22:00:55.804Z,13.53
2018-12-17T22:03:26.517Z,13.47
2018-12-17T22:05:56.074Z,13.63
2018-12-17T22:08:26.324Z,12.67
2018-12-17T22:10:55.734Z,12.20
2018-12-17T22:13:26.120Z,12.83
2018-12-17T22:15:56.009Z,12.67
2018-12-17T22:18:32.692Z,14.10
2018-12-17T22:21:02.340Z,13.03
2018-12-17T22:23:32.208Z,12.43
2018-12-17T22:26:02.582Z,12.93
2018-12-17T22:28:32.166Z,11.93
2018-12-17T22:31:01.671Z,12.07
2018-12-17T22:33:31.203Z,12.97
2018-12-17T22:36:00.683Z,13.00
2018-12-17T22:38:30.086Z,13.00
2018-12-17T22:40:59.619Z,10.90
2018-12-17T22:43:29.050Z,12.67
2018-12-17T22:45:58.377Z,11.97
2018-12-17T22:48:27.847Z,12.87
2018-12-17T22:50:57.503Z,11.13
2018-12-17T22:53:27.125Z,13.60
2018-12-17T22:55:56.655Z,12.90
2018-12-17T22:58:25.997Z,11.90
2018-12-17T23:00:55.554Z,12.10
2018-12-17T23:03:26.481Z,13.03
2018-12-17T23:05:56.115Z,12.70
2018-12-17T23:08:26.938Z,12.43
2018-12-17T23:11:07.529Z,11.30
2018-12-17T23:13:47.860Z,11.20
2018-12-17T23:16:27.938Z,11.73
2018-12-17T23:18:55.651Z,11.37
2018-12-17T23:21:25.007Z,11.40
2018-12-17T23:23:54.326Z,10.37
2018-12-17T23:26:23.538Z,10.57
2018-12-17T23:28:52.655Z,9.70
2018-12-17T23:31:21.783Z,8.47
2018-12-17T23:33:50.872Z,9.10
2018-12-17T23:36:20.995Z,8.60
2018-12-17T23:38:50.182Z,7.33
2018-12-17T23:41:19.343Z,8.93
2018-12-17T23:43:48.951Z,9.03
2018-12-17T23:46:18.112Z,9.10
2018-12-17T23:48:47.286Z,7.70
2018-12-17T23:51:16.636Z,8.93
2018-12-17T23:53:45.714Z,8.00
2018-12-17T23:56:14.911Z,9.13
2018-12-17T23:58:45.001Z,8.60
